Time;durP1;ratioP1;P1;durP2;ratioP2;P2;SDS_P1;SDS_P2;PMS_P1;PMS_P2;Temp;Humidity;BMP_temperature;BMP_pressure;BME280_temperature;BME280_humidity;BME280_pressure;Samples;Min_cycle;Max_cycle;Signal;HPM_P1;HPM_P2
2022/10/21 00:01:07;;;;;;;97.30;62.55;;;;;;;;;;9984492;28;20083;-77
2022/10/21 00:06:01;;;;;;;104.18;62.70;;;;;;;;;;9982659;28;20081;-77
2022/10/21 00:10:59;;;;;;;96.55;62.53;;;;;;;;;;9982697;28;20054;-77
2022/10/21 00:16:14;;;;;;;99.47;61.42;;;;;;;;;;9984917;28;20085;-77
2022/10/21 00:21:10;;;;;;;97.85;60.92;;;;;;;;;;9980309;28;20062;-78
2022/10/21 00:26:04;;;;;;;96.00;61.00;;;;;;;;;;9985687;28;20054;-77
2022/10/21 00:30:58;;;;;;;97.00;61.55;;;;;;;;;;9985376;28;20134;-76
2022/10/21 00:36:01;;;;;;;99.78;63.60;;;;;;;;;;9986182;28;20641;-75
2022/10/21 00:40:55;;;;;;;101.07;60.72;;;;;;;;;;9985898;28;20081;-76
2022/10/21 00:45:51;;;;;;;105.60;63.20;;;;;;;;;;9985396;28;20058;-76
2022/10/21 00:50:53;;;;;;;100.35;63.17;;;;;;;;;;9986061;28;20046;-75
2022/10/21 00:55:55;;;;;;;100.22;62.13;;;;;;;;;;9991752;28;20520;-75
2022/10/21 01:00:50;;;;;;;105.18;62.10;;;;;;;;;;9991634;28;20061;-75
2022/10/21 01:05:47;;;;;;;95.50;59.13;;;;;;;;;;9992303;28;20138;-75
2022/10/21 01:10:42;;;;;;;98.45;58.13;;;;;;;;;;9992350;28;20493;-75
2022/10/21 01:15:41;;;;;;;101.95;62.83;;;;;;;;;;9991825;28;20046;-75
2022/10/21 01:21:02;;;;;;;98.40;63.03;;;;;;;;;;9992275;28;20117;-75
2022/10/21 01:26:05;;;;;;;95.25;61.95;;;;;;;;;;9977858;28;20062;-75
2022/10/21 01:31:31;;;;;;;97.07;59.97;;;;;;;;;;9991456;28;20058;-75
2022/10/21 01:36:29;;;;;;;106.03;59.92;;;;;;;;;;9982555;28;20054;-73
2022/10/21 01:41:33;;;;;;;95.35;59.90;;;;;;;;;;9990334;28;20449;-73
2022/10/21 01:46:29;;;;;;;99.30;57.95;;;;;;;;;;9991205;28;20066;-73
2022/10/21 01:51:25;;;;;;;101.38;59.53;;;;;;;;;;9989670;28;20065;-78
2022/10/21 01:56:20;;;;;;;89.68;57.47;;;;;;;;;;10005954;28;20116;-78
2022/10/21 02:01:16;;;;;;;89.03;56.28;;;;;;;;;;9990269;28;20058;-77
2022/10/21 02:06:12;;;;;;;90.45;57.78;;;;;;;;;;9990234;28;20497;-77
2022/10/21 02:11:11;;;;;;;86.13;53.92;;;;;;;;;;9989225;28;20054;-77
2022/10/21 02:16:07;;;;;;;93.10;56.07;;;;;;;;;;9989958;28;20117;-77
2022/10/21 02:21:05;;;;;;;92.35;55.90;;;;;;;;;;9987621;28;20329;-77
2022/10/21 02:25:59;;;;;;;91.43;57.33;;;;;;;;;;9988182;28;20541;-77
2022/10/21 02:31:16;;;;;;;87.07;57.10;;;;;;;;;;9989111;28;20505;-77
2022/10/21 02:36:15;;;;;;;91.80;57.38;;;;;;;;;;9987955;28;20132;-77
2022/10/21 02:41:10;;;;;;;97.65;56.88;;;;;;;;;;9986720;28;20058;-77
2022/10/21 02:46:11;;;;;;;98.03;55.75;;;;;;;;;;9986675;28;20082;-77
2022/10/21 02:51:06;;;;;;;95.65;55.88;;;;;;;;;;9989052;28;20054;-77
2022/10/21 02:56:00;;;;;;;88.03;55.88;;;;;;;;;;9987066;28;20054;-75
2022/10/21 03:00:53;;;;;;;92.78;58.22;;;;;;;;;;9987415;28;20528;-76
2022/10/21 03:05:47;;;;;;;89.57;54.88;;;;;;;;;;9988089;28;20509;-74
2022/10/21 03:10:41;;;;;;;90.95;53.38;;;;;;;;;;9988187;28;20058;-75
2022/10/21 03:15:35;;;;;;;76.20;50.55;;;;;;;;;;9986479;28;20042;-75
2022/10/21 03:20:28;;;;;;;80.95;53.35;;;;;;;;;;9987549;28;20089;-75
2022/10/21 03:25:22;;;;;;;86.68;52.38;;;;;;;;;;9987336;28;20062;-79
2022/10/21 03:30:16;;;;;;;91.63;55.88;;;;;;;;;;9987106;28;20141;-76
2022/10/21 03:35:11;;;;;;;89.15;54.65;;;;;;;;;;9986598;28;20417;-76
2022/10/21 03:40:07;;;;;;;84.57;55.22;;;;;;;;;;9986999;28;20421;-75
2022/10/21 03:45:05;;;;;;;82.25;51.65;;;;;;;;;;9986635;28;20062;-76
2022/10/21 03:50:00;;;;;;;80.45;52.40;;;;;;;;;;9986685;28;20054;-76
2022/10/21 03:54:54;;;;;;;83.40;53.38;;;;;;;;;;9986627;28;20062;-76
2022/10/21 03:59:49;;;;;;;79.40;50.83;;;;;;;;;;9986499;28;20057;-78
2022/10/21 04:04:44;;;;;;;86.65;54.42;;;;;;;;;;9986901;28;20097;-76
2022/10/21 04:09:37;;;;;;;82.25;54.47;;;;;;;;;;9986831;28;20097;-75
2022/10/21 04:14:31;;;;;;;82.75;52.85;;;;;;;;;;9986876;28;20046;-81
2022/10/21 04:19:25;;;;;;;83.97;50.50;;;;;;;;;;9986362;28;20145;-77
2022/10/21 04:24:19;;;;;;;79.10;50.50;;;;;;;;;;9985838;28;20074;-76
2022/10/21 04:29:12;;;;;;;76.20;49.00;;;;;;;;;;9993094;28;20137;-78
2022/10/21 04:34:06;;;;;;;79.65;51.40;;;;;;;;;;9994094;28;20062;-79
2022/10/21 04:38:59;;;;;;;84.72;49.25;;;;;;;;;;9989451;28;20073;-89
2022/10/21 04:43:54;;;;;;;88.65;52.92;;;;;;;;;;9987388;28;20176;-83
2022/10/21 04:48:48;;;;;;;77.50;50.40;;;;;;;;;;9979321;28;20518;-82
2022/10/21 04:53:42;;;;;;;83.25;51.33;;;;;;;;;;9979308;28;20050;-84
2022/10/21 04:58:36;;;;;;;94.25;53.00;;;;;;;;;;9984011;28;20116;-85
2022/10/21 05:03:30;;;;;;;85.28;53.65;;;;;;;;;;9984151;28;20057;-79
2022/10/21 05:08:24;;;;;;;91.95;55.55;;;;;;;;;;9985264;28;20425;-83
2022/10/21 05:13:18;;;;;;;92.65;56.17;;;;;;;;;;9981170;28;20086;-86
2022/10/21 05:18:11;;;;;;;86.88;53.58;;;;;;;;;;9985057;28;20554;-81
2022/10/21 05:23:05;;;;;;;89.60;55.38;;;;;;;;;;9983398;28;20446;-82
2022/10/21 05:28:00;;;;;;;96.50;58.70;;;;;;;;;;9986155;28;20580;-85
2022/10/21 05:32:56;;;;;;;96.07;56.42;;;;;;;;;;9989202;28;20050;-83
2022/10/21 05:37:50;;;;;;;91.13;58.22;;;;;;;;;;9983740;28;20058;-88
2022/10/21 05:42:44;;;;;;;95.38;58.03;;;;;;;;;;9988786;28;20130;-86
2022/10/21 05:47:39;;;;;;;102.90;63.00;;;;;;;;;;9989370;28;20042;-86
2022/10/21 05:52:33;;;;;;;103.28;59.00;;;;;;;;;;9982409;28;20100;-83
2022/10/21 05:57:27;;;;;;;93.32;57.78;;;;;;;;;;9991125;28;20113;-84
2022/10/21 06:02:21;;;;;;;93.72;57.78;;;;;;;;;;9982382;28;20417;-84
2022/10/21 06:07:16;;;;;;;95.05;56.75;;;;;;;;;;9989487;28;20064;-77
2022/10/21 06:12:10;;;;;;;97.07;56.92;;;;;;;;;;9989754;28;20054;-78
2022/10/21 06:17:04;;;;;;;95.32;56.17;;;;;;;;;;9989485;28;20062;-83
2022/10/21 06:21:58;;;;;;;90.07;53.17;;;;;;;;;;9987730;28;20157;-75
2022/10/21 06:26:51;;;;;;;111.55;56.17;;;;;;;;;;9988659;28;20046;-81
2022/10/21 06:31:45;;;;;;;97.72;54.20;;;;;;;;;;9988359;28;20038;-83
2022/10/21 06:36:39;;;;;;;94.43;54.45;;;;;;;;;;9985397;28;20073;-77
2022/10/21 06:41:33;;;;;;;90.68;53.50;;;;;;;;;;9981817;28;20058;-76
2022/10/21 06:46:28;;;;;;;93.70;52.20;;;;;;;;;;9976549;28;20047;-75
2022/10/21 06:51:23;;;;;;;97.57;53.45;;;;;;;;;;9979238;28;20518;-76
2022/10/21 06:56:17;;;;;;;94.18;53.55;;;;;;;;;;9974205;28;20054;-75
2022/10/21 07:01:33;;;;;;;104.03;52.60;;;;;;;;;;9972253;28;20578;-77
2022/10/21 07:06:46;;;;;;;89.00;46.88;;;;;;;;;;9975977;28;20038;-75
2022/10/21 07:11:39;;;;;;;88.45;45.33;;;;;;;;;;9973948;28;20398;-76
2022/10/21 07:16:34;;;;;;;80.97;47.47;;;;;;;;;;9979519;28;20137;-73
2022/10/21 07:21:30;;;;;;;87.70;46.58;;;;;;;;;;9969481;28;20065;-74
2022/10/21 07:26:26;;;;;;;90.40;48.00;;;;;;;;;;9978992;28;20054;-74
2022/10/21 07:31:22;;;;;;;77.90;46.13;;;;;;;;;;9978438;28;20050;-77
2022/10/21 07:36:18;;;;;;;80.80;44.85;;;;;;;;;;9977651;28;20049;-77
2022/10/21 07:41:20;;;;;;;93.40;45.67;;;;;;;;;;9979382;28;20081;-76
2022/10/21 07:46:14;;;;;;;84.97;43.35;;;;;;;;;;9978543;28;20468;-76
2022/10/21 07:51:10;;;;;;;72.68;42.03;;;;;;;;;;9980582;28;20058;-75
2022/10/21 07:56:15;;;;;;;61.17;36.65;;;;;;;;;;9977982;28;20058;-77
2022/10/21 08:01:10;;;;;;;68.05;37.55;;;;;;;;;;9977093;28;20141;-74
2022/10/21 08:06:05;;;;;;;71.15;39.03;;;;;;;;;;9983564;28;20054;-75
2022/10/21 08:11:00;;;;;;;71.10;37.88;;;;;;;;;;9985318;28;20050;-75
2022/10/21 08:15:55;;;;;;;78.53;39.10;;;;;;;;;;9981135;28;20058;-74
2022/10/21 08:20:49;;;;;;;59.50;38.58;;;;;;;;;;9988687;28;20059;-74
2022/10/21 08:26:09;;;;;;;75.00;45.22;;;;;;;;;;9988108;28;20061;-75
2022/10/21 08:31:07;;;;;;;75.18;46.88;;;;;;;;;;9986010;28;20061;-74
2022/10/21 08:36:42;;;;;;;92.53;53.42;;;;;;;;;;9992647;28;20050;-74
2022/10/21 08:42:07;;;;;;;86.65;49.55;;;;;;;;;;9992142;28;20050;-74
2022/10/21 08:47:06;;;;;;;96.95;50.65;;;;;;;;;;9949226;28;20061;-75
2022/10/21 08:52:23;;;;;;;99.13;54.42;;;;;;;;;;9898228;28;20442;-73
2022/10/21 08:57:18;;;;;;;105.53;57.75;;;;;;;;;;9907759;28;20538;-73
2022/10/21 09:02:12;;;;;;;95.63;55.33;;;;;;;;;;9889151;29;20555;-74
2022/10/21 09:07:29;;;;;;;99.25;57.70;;;;;;;;;;9901768;28;20051;-74
2022/10/21 09:12:36;;;;;;;96.85;58.83;;;;;;;;;;9991367;28;20054;-73
2022/10/21 09:17:58;;;;;;;99.60;60.90;;;;;;;;;;9988104;28;20108;-73
2022/10/21 09:23:20;;;;;;;104.45;63.05;;;;;;;;;;9976559;28;20482;-73
2022/10/21 09:28:15;;;;;;;97.72;58.53;;;;;;;;;;9987824;28;20394;-75
2022/10/21 09:33:18;;;;;;;104.72;60.00;;;;;;;;;;9990229;28;20436;-75
2022/10/21 09:38:28;;;;;;;104.57;62.92;;;;;;;;;;9987145;28;20065;-75
2022/10/21 09:43:24;;;;;;;106.28;64.63;;;;;;;;;;9990275;28;20528;-75
2022/10/21 09:48:18;;;;;;;107.45;64.40;;;;;;;;;;9986613;28;20054;-75
2022/10/21 09:53:23;;;;;;;121.22;73.00;;;;;;;;;;9988841;28;20050;-75
2022/10/21 09:58:37;;;;;;;120.20;70.65;;;;;;;;;;9988628;28;20046;-76
2022/10/21 10:03:39;;;;;;;111.10;67.20;;;;;;;;;;9988424;28;20185;-73
2022/10/21 10:08:37;;;;;;;111.13;67.82;;;;;;;;;;9975750;28;20050;-74
2022/10/21 10:13:32;;;;;;;108.33;67.90;;;;;;;;;;9989204;28;20046;-74
2022/10/21 10:18:26;;;;;;;116.30;71.22;;;;;;;;;;9987282;28;20054;-74
2022/10/21 10:23:20;;;;;;;106.93;66.05;;;;;;;;;;9984946;28;20057;-74
2022/10/21 10:28:20;;;;;;;112.07;67.82;;;;;;;;;;9987720;28;20528;-74
2022/10/21 10:33:28;;;;;;;131.48;69.32;;;;;;;;;;9985108;28;20054;-72
2022/10/21 10:38:37;;;;;;;130.07;71.10;;;;;;;;;;9990082;28;20046;-72
2022/10/21 10:43:32;;;;;;;114.68;64.25;;;;;;;;;;9978750;28;20074;-72
2022/10/21 10:48:37;;;;;;;106.18;61.58;;;;;;;;;;9979005;28;20054;-73
2022/10/21 10:53:31;;;;;;;92.13;52.97;;;;;;;;;;9977896;28;20053;-72
2022/10/21 10:58:27;;;;;;;96.63;52.47;;;;;;;;;;9978696;28;20049;-72
2022/10/21 11:03:26;;;;;;;109.28;57.00;;;;;;;;;;9994256;28;20073;-72
2022/10/21 11:08:37;;;;;;;102.78;55.63;;;;;;;;;;9988104;28;20125;-72
2022/10/21 11:13:36;;;;;;;106.55;59.38;;;;;;;;;;9976877;28;20082;-74
2022/10/21 11:18:41;;;;;;;108.57;59.38;;;;;;;;;;9978751;28;20544;-74
2022/10/21 11:23:59;;;;;;;106.78;59.28;;;;;;;;;;9988643;28;20425;-75
2022/10/21 11:29:27;;;;;;;97.07;56.67;;;;;;;;;;9973139;28;20129;-75
2022/10/21 11:34:46;;;;;;;105.07;59.08;;;;;;;;;;9981344;28;20560;-74
2022/10/21 11:39:58;;;;;;;106.43;60.13;;;;;;;;;;9976816;28;20484;-75
2022/10/21 11:45:22;;;;;;;95.40;55.78;;;;;;;;;;9981678;28;20050;-75
2022/10/21 11:50:25;;;;;;;104.90;59.15;;;;;;;;;;9971624;28;20105;-75
2022/10/21 11:55:51;;;;;;;100.53;56.20;;;;;;;;;;9979996;28;20125;-76
2022/10/21 12:00:57;;;;;;;93.75;51.92;;;;;;;;;;9981425;28;20054;-75
2022/10/21 12:05:58;;;;;;;95.70;55.20;;;;;;;;;;9975062;28;20062;-73
2022/10/21 12:10:55;;;;;;;99.47;55.88;;;;;;;;;;9975401;28;20070;-76
2022/10/21 12:15:55;;;;;;;95.25;54.65;;;;;;;;;;9979509;28;20101;-75
2022/10/21 12:20:53;;;;;;;89.57;50.08;;;;;;;;;;9989122;28;20062;-76
2022/10/21 12:26:15;;;;;;;101.68;54.58;;;;;;;;;;9968783;28;20716;-76
2022/10/21 12:31:21;;;;;;;96.88;53.13;;;;;;;;;;9984755;28;20054;-77
2022/10/21 12:36:23;;;;;;;89.75;46.97;;;;;;;;;;9969986;28;20050;-77
2022/10/21 12:41:22;;;;;;;83.88;46.25;;;;;;;;;;9977703;28;20043;-80
2022/10/21 12:46:23;;;;;;;84.50;42.90;;;;;;;;;;9981634;28;20096;-79
2022/10/21 12:51:21;;;;;;;86.40;47.65;;;;;;;;;;9990674;28;20054;-77
2022/10/21 12:56:41;;;;;;;92.77;50.80;;;;;;;;;;9978325;28;20410;-82
2022/10/21 13:01:33;;;;;;;122.07;59.07;;;;;;;;;;9992500;28;20135;-79
2022/10/21 13:06:50;;;;;;;105.47;54.33;;;;;;;;;;9991297;28;20050;-81
2022/10/21 13:11:45;;;;;;;104.55;52.60;;;;;;;;;;9982530;28;20042;-79
2022/10/21 13:16:40;;;;;;;96.40;50.90;;;;;;;;;;9982797;28;20082;-75
2022/10/21 13:22:00;;;;;;;105.43;50.88;;;;;;;;;;9982633;28;20112;-78
2022/10/21 13:26:56;;;;;;;96.90;48.22;;;;;;;;;;9981517;28;20532;-78
2022/10/21 13:32:18;;;;;;;99.78;52.22;;;;;;;;;;9984970;28;20054;-78
2022/10/21 13:37:58;;;;;;;93.75;46.30;;;;;;;;;;9981976;28;20069;-77
2022/10/21 13:42:59;;;;;;;99.97;52.25;;;;;;;;;;9946132;28;20120;-79
2022/10/21 13:48:18;;;;;;;108.53;58.13;;;;;;;;;;9977605;28;20074;-79
2022/10/21 13:53:17;;;;;;;109.32;60.28;;;;;;;;;;9995352;28;20113;-81
2022/10/21 13:58:15;;;;;;;100.80;52.70;;;;;;;;;;9977903;28;20057;-80
2022/10/21 14:03:18;;;;;;;91.82;53.03;;;;;;;;;;9973095;28;20058;-78
2022/10/21 14:08:38;;;;;;;89.50;48.83;;;;;;;;;;9979314;28;20049;-75
2022/10/21 14:13:35;;;;;;;80.45;47.50;;;;;;;;;;9972360;28;20050;-77
2022/10/21 14:18:40;;;;;;;68.68;39.72;;;;;;;;;;9971238;28;20117;-77
2022/10/21 14:23:54;;;;;;;66.95;41.60;;;;;;;;;;9978998;28;20052;-78
2022/10/21 14:29:08;;;;;;;72.43;43.17;;;;;;;;;;9982202;28;20083;-78
2022/10/21 14:34:06;;;;;;;65.82;39.05;;;;;;;;;;9989001;28;20470;-78
2022/10/21 14:39:02;;;;;;;70.55;42.95;;;;;;;;;;9969162;28;20050;-78
2022/10/21 14:44:17;;;;;;;78.22;46.50;;;;;;;;;;9981948;28;20046;-77
2022/10/21 14:49:33;;;;;;;75.63;45.17;;;;;;;;;;9987029;28;20105;-77
2022/10/21 14:54:48;;;;;;;81.07;47.78;;;;;;;;;;9987773;28;20477;-77
2022/10/21 15:00:22;;;;;;;87.35;50.35;;;;;;;;;;9985897;28;20054;-77
2022/10/21 15:05:47;;;;;;;97.32;56.50;;;;;;;;;;9984540;28;20042;-77
2022/10/21 15:10:41;;;;;;;120.93;60.85;;;;;;;;;;9985946;28;20050;-79
2022/10/21 15:15:43;;;;;;;132.38;63.58;;;;;;;;;;9979899;28;20054;-79
2022/10/21 15:20:56;;;;;;;139.60;66.28;;;;;;;;;;9971627;28;20060;-78
2022/10/21 15:25:55;;;;;;;145.20;63.30;;;;;;;;;;9975060;28;20177;-78
2022/10/21 15:30:51;;;;;;;165.45;71.15;;;;;;;;;;9994900;28;20116;-77
2022/10/21 15:35:44;;;;;;;152.95;70.45;;;;;;;;;;9979141;28;20050;-77
2022/10/21 15:40:38;;;;;;;167.30;78.10;;;;;;;;;;9971528;28;20082;-78
2022/10/21 15:45:33;;;;;;;197.13;81.07;;;;;;;;;;9974984;28;20112;-80
2022/10/21 15:50:27;;;;;;;161.90;76.50;;;;;;;;;;9977186;28;20046;-79
2022/10/21 15:55:22;;;;;;;169.73;77.57;;;;;;;;;;9973608;28;20054;-78
2022/10/21 16:00:18;;;;;;;178.10;78.07;;;;;;;;;;9979220;28;20430;-79
2022/10/21 16:05:12;;;;;;;166.35;80.68;;;;;;;;;;9979474;28;20057;-78
2022/10/21 16:10:17;;;;;;;154.07;72.40;;;;;;;;;;9979156;28;20493;-78
2022/10/21 16:15:11;;;;;;;159.25;78.20;;;;;;;;;;9985654;28;20454;-78
2022/10/21 16:20:06;;;;;;;182.07;81.03;;;;;;;;;;9984185;28;20149;-78
2022/10/21 16:25:01;;;;;;;178.60;82.47;;;;;;;;;;9986937;28;20089;-76
2022/10/21 16:29:54;;;;;;;170.13;78.60;;;;;;;;;;9991512;28;20050;-77
2022/10/21 16:34:49;;;;;;;165.38;72.55;;;;;;;;;;9991880;28;20572;-76
2022/10/21 16:39:43;;;;;;;178.77;80.00;;;;;;;;;;9985097;28;20054;-76
2022/10/21 16:44:36;;;;;;;173.65;78.78;;;;;;;;;;9981197;28;20489;-78
2022/10/21 16:49:31;;;;;;;168.90;75.18;;;;;;;;;;9989247;28;20042;-75
2022/10/21 16:54:25;;;;;;;159.80;76.65;;;;;;;;;;9985040;28;20054;-74
2022/10/21 16:59:18;;;;;;;171.93;80.57;;;;;;;;;;9980039;28;20057;-76
2022/10/21 17:04:13;;;;;;;182.38;85.10;;;;;;;;;;9978627;28;20082;-75
2022/10/21 17:09:07;;;;;;;175.13;84.13;;;;;;;;;;9980411;28;20567;-78
2022/10/21 17:14:03;;;;;;;153.70;75.65;;;;;;;;;;9980585;28;20065;-71
2022/10/21 17:18:56;;;;;;;168.18;81.32;;;;;;;;;;9982705;28;20573;-71
2022/10/21 17:23:51;;;;;;;190.45;86.00;;;;;;;;;;9976892;28;20050;-72
2022/10/21 17:28:45;;;;;;;172.82;85.78;;;;;;;;;;9987941;28;20129;-72
2022/10/21 17:33:38;;;;;;;193.05;93.95;;;;;;;;;;9989822;28;20493;-73
2022/10/21 17:38:32;;;;;;;183.57;87.82;;;;;;;;;;9991324;28;20129;-73
2022/10/21 17:43:26;;;;;;;208.40;93.95;;;;;;;;;;9990506;28;20053;-74
2022/10/21 17:48:20;;;;;;;186.18;86.00;;;;;;;;;;9990560;28;20058;-74
2022/10/21 17:53:15;;;;;;;184.23;85.05;;;;;;;;;;9990754;28;20053;-72
2022/10/21 17:58:09;;;;;;;149.35;72.78;;;;;;;;;;9979079;28;20053;-75
2022/10/21 18:03:03;;;;;;;131.07;68.85;;;;;;;;;;9973724;28;20062;-73
2022/10/21 18:07:58;;;;;;;137.70;66.38;;;;;;;;;;9976165;28;20050;-74
2022/10/21 18:12:54;;;;;;;162.85;74.72;;;;;;;;;;9974920;28;20050;-74
2022/10/21 18:17:49;;;;;;;176.60;83.88;;;;;;;;;;9973844;28;20069;-77
2022/10/21 18:22:42;;;;;;;172.23;80.72;;;;;;;;;;9977248;28;20062;-77
2022/10/21 18:27:36;;;;;;;185.63;86.90;;;;;;;;;;9967359;28;20753;-75
2022/10/21 18:32:30;;;;;;;161.05;80.45;;;;;;;;;;9960374;28;20058;-75
2022/10/21 18:37:24;;;;;;;143.75;72.25;;;;;;;;;;9959868;28;20046;-76
2022/10/21 18:42:18;;;;;;;153.82;73.97;;;;;;;;;;9978329;28;20085;-73
2022/10/21 18:47:12;;;;;;;154.65;76.63;;;;;;;;;;9977116;28;20141;-75
2022/10/21 18:52:06;;;;;;;167.13;77.80;;;;;;;;;;9984058;28;20066;-72
2022/10/21 18:57:02;;;;;;;146.13;71.93;;;;;;;;;;9977963;28;20058;-74
2022/10/21 19:01:58;;;;;;;134.50;68.32;;;;;;;;;;9979144;28;20145;-73
2022/10/21 19:06:54;;;;;;;138.35;70.28;;;;;;;;;;9973044;28;20411;-76
2022/10/21 19:11:49;;;;;;;135.02;68.00;;;;;;;;;;9978560;28;20042;-71
2022/10/21 19:16:44;;;;;;;130.43;65.90;;;;;;;;;;9977798;28;20050;-72
2022/10/21 19:21:38;;;;;;;137.93;69.82;;;;;;;;;;9979957;28;20054;-72
2022/10/21 19:26:33;;;;;;;130.82;66.78;;;;;;;;;;9991726;28;20417;-74
2022/10/21 19:31:27;;;;;;;137.20;66.88;;;;;;;;;;9980135;28;20045;-72
2022/10/21 19:36:25;;;;;;;132.55;65.25;;;;;;;;;;9976495;28;20046;-73
2022/10/21 19:41:21;;;;;;;130.07;62.08;;;;;;;;;;9971274;28;20046;-71
2022/10/21 19:46:17;;;;;;;124.95;61.95;;;;;;;;;;9975949;28;20145;-72
2022/10/21 19:51:18;;;;;;;126.85;62.72;;;;;;;;;;9978339;28;20100;-71
2022/10/21 19:56:12;;;;;;;126.15;64.20;;;;;;;;;;9972964;28;20054;-71
2022/10/21 20:01:12;;;;;;;126.70;62.30;;;;;;;;;;9976091;28;20058;-72
2022/10/21 20:06:12;;;;;;;121.68;59.63;;;;;;;;;;9980443;28;20125;-71
2022/10/21 20:11:14;;;;;;;134.82;64.32;;;;;;;;;;9976622;28;20054;-70
2022/10/21 20:16:16;;;;;;;134.20;66.53;;;;;;;;;;9979338;28;20058;-73
2022/10/21 20:21:11;;;;;;;135.77;65.70;;;;;;;;;;9981751;28;20097;-72
2022/10/21 20:26:08;;;;;;;154.07;70.75;;;;;;;;;;9982354;28;20108;-72
2022/10/21 20:31:06;;;;;;;162.73;72.18;;;;;;;;;;9978483;28;20070;-72
2022/10/21 20:36:07;;;;;;;138.73;68.30;;;;;;;;;;9980724;28;20050;-72
2022/10/21 20:41:07;;;;;;;157.93;72.43;;;;;;;;;;9985630;28;20141;-74
2022/10/21 20:46:02;;;;;;;138.43;71.32;;;;;;;;;;9978084;28;20046;-74
2022/10/21 20:51:04;;;;;;;137.75;64.38;;;;;;;;;;9975388;28;20049;-74
2022/10/21 20:55:58;;;;;;;141.18;63.97;;;;;;;;;;9978539;28;20046;-74
2022/10/21 21:00:53;;;;;;;143.02;69.22;;;;;;;;;;9977400;28;20489;-74
2022/10/21 21:05:51;;;;;;;136.75;66.97;;;;;;;;;;9978955;28;20062;-74
2022/10/21 21:10:44;;;;;;;128.68;67.25;;;;;;;;;;9984911;28;20059;-72
2022/10/21 21:15:39;;;;;;;132.73;65.75;;;;;;;;;;9980072;28;20173;-73
2022/10/21 21:20:39;;;;;;;135.57;66.72;;;;;;;;;;9985206;28;20426;-72
2022/10/21 21:25:34;;;;;;;135.10;64.60;;;;;;;;;;9987469;28;20050;-72
2022/10/21 21:30:35;;;;;;;137.82;65.20;;;;;;;;;;9988067;28;20054;-72
2022/10/21 21:35:29;;;;;;;138.18;63.67;;;;;;;;;;9981486;28;20054;-72
2022/10/21 21:40:22;;;;;;;140.15;65.72;;;;;;;;;;9982017;28;20105;-72
2022/10/21 21:45:17;;;;;;;126.18;65.18;;;;;;;;;;9981716;28;20462;-73
2022/10/21 21:50:10;;;;;;;138.98;68.57;;;;;;;;;;9986371;28;20050;-72
2022/10/21 21:55:07;;;;;;;136.07;65.82;;;;;;;;;;9977186;28;20062;-72
2022/10/21 22:00:01;;;;;;;136.35;64.20;;;;;;;;;;9979353;28;20050;-72
2022/10/21 22:04:57;;;;;;;135.10;65.60;;;;;;;;;;9983200;28;20556;-72
2022/10/21 22:09:51;;;;;;;143.45;70.20;;;;;;;;;;9984697;28;20042;-72
2022/10/21 22:14:45;;;;;;;167.57;77.07;;;;;;;;;;9983046;28;20109;-72
2022/10/21 22:19:39;;;;;;;145.68;70.18;;;;;;;;;;9984266;28;20062;-72
2022/10/21 22:24:33;;;;;;;164.73;72.22;;;;;;;;;;9979151;28;20046;-72
2022/10/21 22:29:27;;;;;;;151.85;73.15;;;;;;;;;;9986183;28;20050;-73
2022/10/21 22:34:21;;;;;;;142.90;71.20;;;;;;;;;;9990362;28;20043;-73
2022/10/21 22:39:15;;;;;;;163.52;76.10;;;;;;;;;;9989388;28;20134;-73
2022/10/21 22:44:10;;;;;;;141.20;66.85;;;;;;;;;;9988338;28;20053;-73
2022/10/21 22:49:04;;;;;;;152.38;73.07;;;;;;;;;;10003457;28;20100;-73
2022/10/21 22:53:58;;;;;;;140.32;68.53;;;;;;;;;;9988549;28;20054;-73
2022/10/21 22:58:51;;;;;;;142.50;69.78;;;;;;;;;;9988067;28;20049;-74
2022/10/21 23:03:46;;;;;;;143.18;69.20;;;;;;;;;;9988801;28;20050;-73
2022/10/21 23:08:40;;;;;;;123.75;64.25;;;;;;;;;;9987857;28;20136;-75
2022/10/21 23:13:34;;;;;;;118.70;61.22;;;;;;;;;;9987074;28;20058;-77
2022/10/21 23:18:28;;;;;;;125.80;61.88;;;;;;;;;;9987005;28;20420;-76
2022/10/21 23:23:22;;;;;;;109.68;59.38;;;;;;;;;;9986860;28;20424;-76
2022/10/21 23:28:16;;;;;;;99.65;53.97;;;;;;;;;;9986407;28;20402;-74
2022/10/21 23:33:28;;;;;;;89.60;48.35;;;;;;;;;;9902793;28;20582;-74
2022/10/21 23:38:23;;;;;;;88.18;44.80;;;;;;;;;;9904793;29;20055;-73
2022/10/21 23:43:16;;;;;;;77.35;41.95;;;;;;;;;;9905090;29;20072;-74
2022/10/21 23:48:10;;;;;;;81.13;44.30;;;;;;;;;;9907776;28;20086;-74
2022/10/21 23:53:03;;;;;;;77.32;41.50;;;;;;;;;;9986074;28;20066;-75
2022/10/21 23:57:57;;;;;;;72.85;39.33;;;;;;;;;;9986099;28;20561;-74
